createdAt,value
2018-08-30T00:00:19.520Z,0.00
2018-08-30T00:01:19.542Z,0.00
2018-08-30T00:02:19.574Z,0.00
2018-08-30T00:03:19.596Z,0.00
2018-08-30T00:04:19.620Z,0.00
2018-08-30T00:05:19.646Z,0.00
2018-08-30T00:06:19.675Z,0.00
2018-08-30T00:07:19.698Z,0.00
2018-08-30T00:08:19.725Z,0.00
2018-08-30T00:09:19.748Z,0.00
2018-08-30T00:10:19.774Z,0.00
2018-08-30T00:11:19.805Z,0.00
2018-08-30T00:12:19.837Z,0.00
2018-08-30T00:13:19.864Z,0.00
2018-08-30T00:14:19.877Z,0.00
2018-08-30T00:15:19.904Z,0.00
2018-08-30T00:16:19.928Z,0.00
2018-08-30T00:17:19.955Z,0.00
2018-08-30T00:18:19.983Z,0.00
2018-08-30T00:19:20.007Z,0.00
2018-08-30T00:20:20.035Z,0.00
2018-08-30T00:21:20.059Z,0.00
2018-08-30T00:22:20.087Z,0.00
2018-08-30T00:23:20.115Z,0.00
2018-08-30T00:24:20.137Z,0.00
2018-08-30T00:25:20.164Z,0.00
2018-08-30T00:26:20.188Z,0.00
2018-08-30T00:27:20.215Z,0.00
2018-08-30T00:28:20.237Z,0.00
2018-08-30T00:29:20.265Z,0.00
2018-08-30T00:30:20.281Z,0.00
2018-08-30T00:31:20.320Z,0.00
2018-08-30T00:32:20.344Z,0.00
2018-08-30T00:33:20.372Z,0.00
2018-08-30T00:34:20.394Z,0.00
2018-08-30T00:35:20.416Z,0.00
2018-08-30T00:36:20.444Z,0.00
2018-08-30T00:37:20.477Z,0.00
2018-08-30T00:38:20.496Z,0.00
2018-08-30T00:39:20.522Z,0.00
2018-08-30T00:40:20.547Z,0.00
2018-08-30T00:41:20.621Z,0.00
2018-08-30T00:42:20.595Z,0.00
2018-08-30T00:43:20.623Z,0.00
2018-08-30T00:44:20.696Z,0.00
2018-08-30T00:45:20.672Z,0.00
2018-08-30T00:46:20.698Z,0.00
2018-08-30T00:47:20.735Z,0.00
2018-08-30T00:48:20.748Z,0.00
2018-08-30T00:49:20.772Z,0.00
2018-08-30T00:50:20.796Z,0.00
2018-08-30T00:51:20.823Z,0.00
2018-08-30T00:52:20.848Z,0.00
2018-08-30T00:53:20.874Z,0.00
2018-08-30T00:54:20.904Z,0.00
2018-08-30T00:55:20.929Z,0.00
2018-08-30T00:56:20.948Z,0.00
2018-08-30T00:57:20.978Z,0.00
2018-08-30T00:58:21.002Z,0.00
2018-08-30T00:59:21.031Z,0.00
2018-08-30T01:00:21.052Z,0.00
2018-08-30T01:01:21.069Z,0.00
2018-08-30T01:02:21.105Z,0.00
2018-08-30T01:03:21.126Z,0.00
2018-08-30T01:04:21.151Z,0.00
2018-08-30T01:05:21.174Z,0.00
2018-08-30T01:06:21.201Z,0.00
2018-08-30T01:07:21.230Z,0.00
2018-08-30T01:08:21.252Z,4.00
2018-08-30T01:09:21.276Z,0.00
2018-08-30T01:10:21.306Z,0.00
2018-08-30T01:11:21.328Z,0.00
2018-08-30T01:12:21.350Z,0.00
2018-08-30T01:13:21.378Z,0.00
2018-08-30T01:14:21.400Z,0.00
2018-08-30T01:15:21.430Z,0.00
2018-08-30T01:16:21.456Z,0.00
2018-08-30T01:17:21.482Z,0.00
2018-08-30T01:18:21.502Z,0.00
2018-08-30T01:19:21.526Z,0.00
2018-08-30T01:20:21.554Z,0.00
2018-08-30T01:21:21.576Z,0.00
2018-08-30T01:22:21.606Z,0.00
2018-08-30T01:23:21.632Z,0.00
2018-08-30T01:24:21.656Z,0.00
2018-08-30T01:25:21.677Z,0.00
2018-08-30T01:26:21.708Z,0.00
2018-08-30T01:27:21.728Z,0.00
2018-08-30T01:28:21.758Z,0.00
2018-08-30T01:29:21.778Z,0.00
2018-08-30T01:30:21.818Z,0.00
2018-08-30T01:31:21.830Z,0.00
2018-08-30T01:32:21.856Z,0.00
2018-08-30T01:33:21.879Z,0.00
2018-08-30T01:34:21.908Z,0.00
2018-08-30T01:35:21.928Z,0.00
2018-08-30T01:36:21.954Z,0.00
2018-08-30T01:37:21.983Z,0.00
2018-08-30T01:38:22.010Z,0.00
2018-08-30T01:39:22.036Z,0.00
2018-08-30T01:40:22.056Z,0.00
2018-08-30T01:41:22.078Z,0.00
2018-08-30T01:42:22.108Z,0.00
2018-08-30T01:43:22.136Z,0.00
2018-08-30T01:44:22.152Z,0.00
2018-08-30T01:45:22.180Z,0.00
2018-08-30T01:46:22.206Z,0.00
2018-08-30T01:47:22.230Z,0.00
2018-08-30T01:48:22.255Z,0.00
2018-08-30T01:49:22.276Z,0.00
2018-08-30T01:50:22.313Z,0.00
2018-08-30T01:51:22.334Z,0.00
2018-08-30T01:52:22.364Z,0.00
2018-08-30T01:53:22.381Z,0.00
2018-08-30T01:54:22.404Z,0.00
2018-08-30T01:55:22.439Z,0.00
2018-08-30T01:56:22.460Z,0.00
2018-08-30T01:57:22.480Z,0.00
2018-08-30T01:58:22.508Z,0.00
2018-08-30T01:59:22.528Z,0.00
2018-08-30T02:00:22.556Z,0.00
2018-08-30T02:01:22.586Z,0.00
2018-08-30T02:02:22.607Z,0.00
2018-08-30T02:03:22.634Z,0.00
2018-08-30T02:04:22.660Z,0.00
2018-08-30T02:05:22.684Z,0.00
2018-08-30T02:06:22.715Z,0.00
2018-08-30T02:07:22.737Z,0.00
2018-08-30T02:08:22.764Z,0.00
2018-08-30T02:09:22.786Z,0.00
2018-08-30T02:10:22.808Z,0.00
2018-08-30T02:11:22.832Z,0.00
2018-08-30T02:12:22.858Z,0.00
2018-08-30T02:13:22.886Z,0.00
2018-08-30T02:14:22.909Z,0.00
2018-08-30T02:15:22.942Z,0.00
2018-08-30T02:16:22.966Z,0.00
2018-08-30T02:17:22.984Z,0.00
2018-08-30T02:18:23.012Z,0.00
2018-08-30T02:19:23.033Z,0.00
2018-08-30T02:20:23.056Z,0.00
2018-08-30T02:21:23.085Z,0.00
2018-08-30T02:22:23.114Z,0.00
2018-08-30T02:23:23.134Z,0.00
2018-08-30T02:24:23.167Z,0.00
2018-08-30T02:25:23.184Z,0.00
2018-08-30T02:26:23.212Z,0.00
2018-08-30T02:27:23.243Z,0.00
2018-08-30T02:28:23.258Z,0.00
2018-08-30T02:29:23.292Z,0.00
2018-08-30T02:30:23.319Z,0.00
2018-08-30T02:31:23.334Z,0.00
2018-08-30T02:32:23.366Z,0.00
2018-08-30T02:33:23.384Z,0.00
2018-08-30T02:34:23.414Z,0.00
2018-08-30T02:35:23.433Z,0.00
2018-08-30T02:36:23.458Z,0.00
2018-08-30T02:37:23.487Z,0.00
2018-08-30T02:38:23.510Z,0.00
2018-08-30T02:39:23.534Z,0.00
2018-08-30T02:40:23.564Z,0.00
2018-08-30T02:41:23.584Z,0.00
2018-08-30T02:42:23.607Z,0.00
2018-08-30T02:43:23.645Z,0.00
2018-08-30T02:44:23.663Z,0.00
2018-08-30T02:45:23.679Z,0.00
2018-08-30T02:46:23.710Z,0.00
2018-08-30T02:47:23.732Z,0.00
2018-08-30T02:48:23.759Z,0.00
2018-08-30T02:49:23.786Z,0.00
2018-08-30T02:50:23.810Z,0.00
2018-08-30T02:51:23.833Z,0.00
2018-08-30T02:52:23.859Z,0.00
2018-08-30T02:53:23.884Z,0.00
2018-08-30T02:54:23.912Z,0.00
2018-08-30T02:55:23.930Z,0.00
2018-08-30T02:56:23.951Z,0.00
2018-08-30T02:57:23.972Z,0.00
2018-08-30T02:58:24.006Z,0.00
2018-08-30T02:59:24.028Z,0.00
2018-08-30T03:00:24.049Z,4.00
2018-08-30T03:01:24.078Z,4.00
2018-08-30T03:02:24.098Z,0.00
2018-08-30T03:03:24.121Z,0.00
2018-08-30T03:04:24.146Z,0.00
2018-08-30T03:05:24.173Z,0.00
2018-08-30T03:06:24.200Z,0.00
2018-08-30T03:07:24.221Z,0.00
2018-08-30T03:08:24.251Z,0.00
2018-08-30T03:09:24.266Z,0.00
2018-08-30T03:10:24.289Z,0.00
2018-08-30T03:11:24.318Z,0.00
2018-08-30T03:12:24.336Z,4.00
2018-08-30T03:13:24.364Z,0.00
2018-08-30T03:14:24.384Z,0.00
2018-08-30T03:15:24.409Z,0.00
2018-08-30T03:16:24.433Z,0.00
2018-08-30T03:17:24.456Z,0.00
2018-08-30T03:18:24.488Z,4.00
2018-08-30T03:19:24.502Z,0.00
2018-08-30T03:20:24.529Z,0.00
2018-08-30T03:21:24.549Z,4.00
2018-08-30T03:22:24.575Z,0.00
2018-08-30T03:23:24.598Z,0.00
2018-08-30T03:24:24.623Z,4.00
2018-08-30T03:25:24.640Z,0.00
2018-08-30T03:26:24.663Z,0.00
2018-08-30T03:27:24.691Z,4.00
2018-08-30T03:28:24.723Z,0.00
2018-08-30T03:29:24.735Z,4.00
2018-08-30T03:30:25.013Z,0.00
2018-08-30T03:31:24.792Z,0.00
2018-08-30T03:32:24.803Z,4.00
2018-08-30T03:33:24.839Z,4.00
2018-08-30T03:34:24.856Z,0.00
2018-08-30T03:35:24.878Z,4.00
2018-08-30T03:36:24.898Z,4.00
2018-08-30T03:37:24.923Z,4.00
2018-08-30T03:38:24.943Z,0.00
2018-08-30T03:39:24.972Z,4.00
2018-08-30T03:40:24.991Z,0.00
2018-08-30T03:41:25.014Z,0.00
2018-08-30T03:42:25.045Z,4.00
2018-08-30T03:43:25.059Z,4.00
2018-08-30T03:44:25.105Z,4.00
2018-08-30T03:45:25.107Z,4.00
2018-08-30T03:46:25.127Z,0.00
2018-08-30T03:47:25.159Z,4.00
2018-08-30T03:48:25.184Z,0.00
2018-08-30T03:49:25.203Z,4.00
2018-08-30T03:50:25.225Z,0.00
2018-08-30T03:51:25.245Z,0.00
2018-08-30T03:52:25.268Z,4.00
2018-08-30T03:53:25.289Z,0.00
2018-08-30T03:54:25.316Z,4.00
2018-08-30T03:55:25.339Z,4.00
2018-08-30T03:56:25.363Z,0.00
2018-08-30T03:57:25.384Z,0.00
2018-08-30T03:58:25.405Z,0.00
2018-08-30T03:59:25.454Z,4.00
2018-08-30T04:00:25.463Z,4.00
2018-08-30T04:01:25.482Z,0.00
2018-08-30T04:02:25.505Z,4.00
2018-08-30T04:03:25.525Z,4.00
2018-08-30T04:04:25.685Z,4.00
2018-08-30T04:05:25.569Z,0.00
2018-08-30T04:06:25.598Z,4.00
2018-08-30T04:07:25.619Z,4.00
2018-08-30T04:08:25.645Z,4.00
2018-08-30T04:09:25.665Z,8.00
2018-08-30T04:10:25.696Z,4.00
2018-08-30T04:11:25.707Z,8.00
2018-08-30T04:12:25.732Z,8.00
2018-08-30T04:13:25.819Z,8.00
2018-08-30T04:14:25.786Z,8.00
2018-08-30T04:15:25.803Z,12.00
2018-08-30T04:16:25.829Z,12.00
2018-08-30T04:17:25.853Z,12.00
2018-08-30T04:18:25.874Z,16.00
2018-08-30T04:19:25.895Z,16.00
2018-08-30T04:20:25.917Z,16.00
2018-08-30T04:21:25.940Z,16.00
2018-08-30T04:22:25.963Z,20.00
2018-08-30T04:23:25.989Z,24.00
2018-08-30T04:24:26.015Z,24.00
2018-08-30T04:25:26.041Z,28.00
2018-08-30T04:26:26.064Z,28.00
2018-08-30T04:27:26.083Z,28.00
2018-08-30T04:28:26.101Z,28.00
2018-08-30T04:29:26.127Z,32.00
2018-08-30T04:30:26.157Z,36.00
2018-08-30T04:31:26.217Z,36.00
2018-08-30T04:32:26.202Z,40.00
2018-08-30T04:33:26.223Z,40.00
2018-08-30T04:34:26.245Z,40.00
2018-08-30T04:35:26.264Z,44.00
2018-08-30T04:36:26.293Z,48.00
2018-08-30T04:37:26.313Z,48.00
2018-08-30T04:38:26.335Z,52.00
2018-08-30T04:39:26.360Z,52.00
2018-08-30T04:40:26.379Z,48.00
2018-08-30T04:41:26.407Z,52.00
2018-08-30T04:42:26.512Z,52.00
2018-08-30T04:43:26.454Z,52.00
2018-08-30T04:44:26.473Z,56.00
2018-08-30T04:45:26.501Z,56.00
2018-08-30T04:46:26.516Z,56.00
2018-08-30T04:47:26.545Z,60.00
2018-08-30T04:48:26.567Z,64.00
2018-08-30T04:49:26.596Z,68.00
2018-08-30T04:50:26.645Z,76.00
2018-08-30T04:51:26.637Z,76.00
2018-08-30T04:52:26.662Z,72.00
2018-08-30T04:53:26.681Z,68.00
2018-08-30T04:54:26.707Z,76.00
2018-08-30T04:55:26.732Z,88.00
2018-08-30T04:56:26.753Z,104.00
2018-08-30T04:57:26.774Z,108.00
2018-08-30T04:58:26.799Z,112.00
2018-08-30T04:59:26.827Z,112.00
2018-08-30T05:00:26.846Z,116.00
2018-08-30T05:01:26.868Z,120.00
2018-08-30T05:02:26.891Z,128.00
2018-08-30T05:03:26.915Z,132.00
2018-08-30T05:04:26.937Z,132.00
2018-08-30T05:05:26.965Z,144.00
2018-08-30T05:06:26.992Z,152.00
2018-08-30T05:07:27.007Z,156.00
2018-08-30T05:08:27.032Z,156.00
2018-08-30T05:09:27.049Z,164.00
2018-08-30T05:10:27.081Z,160.00
2018-08-30T05:11:27.101Z,168.00
2018-08-30T05:12:27.118Z,172.00
2018-08-30T05:13:27.151Z,172.00
2018-08-30T05:14:27.171Z,184.00
2018-08-30T05:15:27.188Z,192.00
2018-08-30T05:16:27.261Z,200.00
2018-08-30T05:17:27.241Z,212.00
2018-08-30T05:18:27.261Z,228.00
2018-08-30T05:19:27.281Z,236.00
2018-08-30T05:20:27.310Z,268.00
2018-08-30T05:21:27.335Z,280.00
2018-08-30T05:22:27.357Z,308.00
2018-08-30T05:23:27.375Z,336.00
2018-08-30T05:24:27.401Z,364.00
2018-08-30T05:25:27.429Z,400.00
2018-08-30T05:26:27.441Z,440.00
2018-08-30T05:27:27.473Z,472.00
2018-08-30T05:28:27.493Z,508.00
2018-08-30T05:29:27.513Z,548.00
2018-08-30T05:30:27.537Z,596.00
2018-08-30T05:31:27.559Z,632.00
2018-08-30T05:32:27.588Z,668.00
2018-08-30T05:33:27.610Z,736.00
2018-08-30T05:34:27.633Z,792.00
2018-08-30T05:35:27.660Z,892.00
2018-08-30T05:36:27.682Z,968.00
2018-08-30T05:37:27.700Z,1024.00
2018-08-30T05:38:27.732Z,1076.00
2018-08-30T05:39:27.744Z,1140.00
2018-08-30T05:40:27.770Z,1192.00
2018-08-30T05:41:27.791Z,1208.00
2018-08-30T05:42:27.811Z,1188.00
2018-08-30T05:43:27.839Z,1160.00
2018-08-30T05:44:27.866Z,1216.00
2018-08-30T05:45:27.883Z,1280.00
2018-08-30T05:46:27.905Z,1224.00
2018-08-30T05:47:27.926Z,1240.00
2018-08-30T05:48:27.958Z,1216.00
2018-08-30T05:49:27.976Z,1276.00
2018-08-30T05:50:27.995Z,1252.00
2018-08-30T05:51:28.025Z,1172.00
2018-08-30T05:52:28.079Z,1068.00
2018-08-30T05:53:28.067Z,980.00
2018-08-30T05:54:28.089Z,916.00
2018-08-30T05:55:28.113Z,900.00
2018-08-30T05:56:28.141Z,888.00
2018-08-30T05:57:28.155Z,864.00
2018-08-30T05:58:28.181Z,828.00
2018-08-30T05:59:28.205Z,784.00
2018-08-30T06:00:28.234Z,768.00
2018-08-30T06:01:28.251Z,740.00
2018-08-30T06:02:28.277Z,740.00
2018-08-30T06:03:28.294Z,724.00
2018-08-30T06:04:28.322Z,740.00
2018-08-30T06:05:28.339Z,768.00
2018-08-30T06:06:28.365Z,796.00
2018-08-30T06:07:28.389Z,836.00
2018-08-30T06:08:28.554Z,856.00
2018-08-30T06:09:28.434Z,868.00
2018-08-30T06:10:28.453Z,848.00
2018-08-30T06:11:28.481Z,900.00
2018-08-30T06:12:28.504Z,1000.00
2018-08-30T06:13:28.529Z,1140.00
2018-08-30T06:14:28.551Z,1268.00
2018-08-30T06:15:28.577Z,1336.00
2018-08-30T06:16:28.598Z,1288.00
2018-08-30T06:17:28.618Z,1304.00
2018-08-30T06:18:28.647Z,1256.00
2018-08-30T06:19:28.663Z,1264.00
2018-08-30T06:20:28.692Z,1252.00
2018-08-30T06:21:28.713Z,1296.00
2018-08-30T06:22:28.729Z,1336.00
2018-08-30T06:23:28.753Z,1320.00
2018-08-30T06:24:28.782Z,1396.00
2018-08-30T06:25:28.807Z,1316.00
2018-08-30T06:26:28.826Z,1120.00
2018-08-30T06:27:28.852Z,936.00
2018-08-30T06:28:28.868Z,1104.00
2018-08-30T06:29:28.896Z,1176.00
2018-08-30T06:30:28.917Z,1396.00
2018-08-30T06:31:28.941Z,1552.00
2018-08-30T06:32:28.963Z,1608.00
2018-08-30T06:33:28.983Z,1684.00
2018-08-30T06:34:29.012Z,1696.00
2018-08-30T06:35:29.060Z,1672.00
2018-08-30T06:36:29.056Z,1548.00
2018-08-30T06:37:29.075Z,1496.00
2018-08-30T06:38:29.163Z,1604.00
2018-08-30T06:39:29.123Z,1596.00
2018-08-30T06:40:29.149Z,1544.00
2018-08-30T06:41:29.167Z,1644.00
2018-08-30T06:42:29.188Z,1692.00
2018-08-30T06:43:29.216Z,1756.00
2018-08-30T06:44:29.235Z,1616.00
2018-08-30T06:45:29.324Z,1528.00
2018-08-30T06:46:29.284Z,1424.00
2018-08-30T06:47:29.307Z,1372.00
2018-08-30T06:48:29.339Z,1420.00
2018-08-30T06:49:29.355Z,1444.00
2018-08-30T06:50:29.381Z,1540.00
2018-08-30T06:51:29.405Z,1576.00
2018-08-30T06:52:29.422Z,1648.00
2018-08-30T06:53:29.443Z,1876.00
2018-08-30T06:54:29.469Z,1864.00
2018-08-30T06:55:29.485Z,1852.00
2018-08-30T06:56:29.660Z,1868.00
2018-08-30T06:57:29.546Z,1880.00
2018-08-30T06:58:29.621Z,1904.00
2018-08-30T06:59:29.590Z,1924.00
2018-08-30T07:00:29.607Z,1876.00
2018-08-30T07:01:29.628Z,1768.00
2018-08-30T07:02:29.656Z,1548.00
2018-08-30T07:03:29.672Z,1568.00
2018-08-30T07:04:29.701Z,1664.00
2018-08-30T07:05:29.722Z,1664.00
2018-08-30T07:06:29.747Z,1704.00
2018-08-30T07:07:29.766Z,1868.00
2018-08-30T07:08:29.795Z,1912.00
2018-08-30T07:09:29.812Z,1864.00
2018-08-30T07:10:29.835Z,1972.00
2018-08-30T07:11:29.863Z,2028.00
2018-08-30T07:12:29.887Z,2172.00
2018-08-30T07:13:29.910Z,2512.00
2018-08-30T07:14:29.943Z,2752.00
2018-08-30T07:15:29.963Z,2912.00
2018-08-30T07:16:29.980Z,3504.00
2018-08-30T07:17:29.997Z,3464.00
2018-08-30T07:18:30.023Z,4008.00
2018-08-30T07:19:30.043Z,4256.00
2018-08-30T07:20:30.064Z,4184.00
2018-08-30T07:21:30.090Z,3824.00
2018-08-30T07:22:30.116Z,3112.00
2018-08-30T07:23:30.136Z,2888.00
2018-08-30T07:24:30.163Z,2732.00
2018-08-30T07:25:30.180Z,2336.00
2018-08-30T07:26:30.208Z,2488.00
2018-08-30T07:27:30.232Z,2176.00
2018-08-30T07:28:30.318Z,2016.00
2018-08-30T07:29:30.279Z,2012.00
2018-08-30T07:30:30.301Z,2264.00
2018-08-30T07:31:30.329Z,2164.00
2018-08-30T07:32:30.342Z,2040.00
2018-08-30T07:33:30.591Z,2560.00
2018-08-30T07:34:30.438Z,3236.00
2018-08-30T07:35:30.421Z,3568.00
2018-08-30T07:36:30.442Z,3628.00
2018-08-30T07:37:30.466Z,3604.00
2018-08-30T07:38:30.483Z,3148.00
2018-08-30T07:39:30.508Z,2892.00
2018-08-30T07:40:30.588Z,3132.00
2018-08-30T07:41:30.561Z,3332.00
2018-08-30T07:42:30.580Z,3328.00
2018-08-30T07:43:30.603Z,3272.00
2018-08-30T07:44:30.799Z,3096.00
2018-08-30T07:45:30.655Z,3296.00
2018-08-30T07:46:30.679Z,4276.00
2018-08-30T07:47:30.695Z,3980.00
2018-08-30T07:48:30.717Z,4056.00
2018-08-30T07:49:30.743Z,3960.00
2018-08-30T07:50:30.770Z,3624.00
2018-08-30T07:51:30.786Z,3596.00
2018-08-30T07:52:30.815Z,3416.00
2018-08-30T07:53:30.836Z,3416.00
2018-08-30T07:54:30.901Z,2832.00
2018-08-30T07:55:30.879Z,2836.00
2018-08-30T07:56:30.904Z,2792.00
2018-08-30T07:57:31.014Z,2576.00
2018-08-30T07:58:30.951Z,2468.00
2018-08-30T07:59:30.984Z,2764.00
2018-08-30T08:00:31.001Z,2820.00
2018-08-30T08:01:31.023Z,3336.00
2018-08-30T08:02:31.045Z,3796.00
2018-08-30T08:03:31.070Z,3244.00
2018-08-30T08:04:31.098Z,3372.00
2018-08-30T08:05:31.121Z,3572.00
2018-08-30T08:06:31.146Z,4256.00
2018-08-30T08:07:31.162Z,4260.00
2018-08-30T08:08:31.196Z,5056.00
2018-08-30T08:09:31.218Z,4664.00
2018-08-30T08:10:31.234Z,4824.00
2018-08-30T08:11:31.256Z,5004.00
2018-08-30T08:12:31.322Z,5168.00
2018-08-30T08:13:31.306Z,5104.00
2018-08-30T08:14:31.332Z,4372.00
2018-08-30T08:15:31.353Z,4688.00
2018-08-30T08:16:31.370Z,4872.00
2018-08-30T08:17:31.400Z,4956.00
2018-08-30T08:18:31.425Z,4528.00
2018-08-30T08:19:31.447Z,5352.00
2018-08-30T08:20:31.473Z,5144.00
2018-08-30T08:21:31.494Z,5564.00
2018-08-30T08:22:31.518Z,5012.00
2018-08-30T08:23:31.542Z,4524.00
2018-08-30T08:24:31.564Z,4184.00
2018-08-30T08:25:31.589Z,4608.00
2018-08-30T08:26:31.613Z,5044.00
2018-08-30T08:27:31.637Z,4512.00
2018-08-30T08:28:31.660Z,4444.00
2018-08-30T08:29:31.684Z,4408.00
2018-08-30T08:30:31.710Z,4048.00
2018-08-30T08:31:31.730Z,4052.00
2018-08-30T08:32:31.752Z,3924.00
2018-08-30T08:33:31.779Z,3524.00
2018-08-30T08:34:31.801Z,3672.00
2018-08-30T08:35:31.827Z,3788.00
2018-08-30T08:36:31.857Z,3668.00
2018-08-30T08:37:31.877Z,4332.00
2018-08-30T08:38:31.896Z,4568.00
2018-08-30T08:39:31.924Z,5116.00
2018-08-30T08:40:31.952Z,5592.00
2018-08-30T08:41:31.972Z,5904.00
2018-08-30T08:42:31.992Z,5620.00
2018-08-30T08:43:32.017Z,6028.00
2018-08-30T08:44:32.042Z,8148.00
2018-08-30T08:45:32.071Z,7412.00
2018-08-30T08:46:32.091Z,5676.00
2018-08-30T08:47:32.111Z,4508.00
2018-08-30T08:48:32.136Z,3580.00
2018-08-30T08:49:32.163Z,3724.00
2018-08-30T08:50:32.183Z,3480.00
2018-08-30T08:51:32.215Z,3516.00
2018-08-30T08:52:32.233Z,4184.00
2018-08-30T08:53:32.256Z,3488.00
2018-08-30T08:54:32.277Z,2768.00
2018-08-30T08:55:32.309Z,2520.00
2018-08-30T08:56:32.339Z,2676.00
2018-08-30T08:57:32.352Z,2476.00
2018-08-30T08:58:32.374Z,2328.00
2018-08-30T08:59:32.457Z,2316.00
2018-08-30T09:00:32.431Z,2696.00
2018-08-30T09:01:32.446Z,2784.00
2018-08-30T09:02:32.472Z,2856.00
2018-08-30T09:03:32.492Z,3148.00
2018-08-30T09:04:32.520Z,3372.00
2018-08-30T09:05:32.542Z,3556.00
2018-08-30T09:06:32.574Z,3616.00
2018-08-30T09:07:32.640Z,4104.00
2018-08-30T09:08:32.616Z,4712.00
2018-08-30T09:09:32.634Z,4716.00
2018-08-30T09:10:32.661Z,4564.00
2018-08-30T09:11:32.685Z,5944.00
2018-08-30T09:12:32.711Z,5612.00
2018-08-30T09:13:32.735Z,4772.00
2018-08-30T09:14:32.879Z,4432.00
2018-08-30T09:15:32.781Z,4768.00
2018-08-30T09:16:32.807Z,4340.00
2018-08-30T09:17:32.832Z,3520.00
2018-08-30T09:18:32.901Z,4336.00
2018-08-30T09:19:32.876Z,6280.00
2018-08-30T09:20:32.925Z,7620.00
2018-08-30T09:21:32.922Z,8020.00
2018-08-30T09:22:32.947Z,8612.00
2018-08-30T09:23:32.972Z,9836.00
2018-08-30T09:24:33.005Z,8840.00
2018-08-30T09:25:33.030Z,7132.00
2018-08-30T09:26:33.052Z,7728.00
2018-08-30T09:27:33.071Z,7856.00
2018-08-30T09:28:33.089Z,9160.00
2018-08-30T09:29:33.119Z,10704.00
2018-08-30T09:30:33.146Z,12868.00
2018-08-30T09:31:33.166Z,15276.00
2018-08-30T09:32:33.198Z,16812.00
2018-08-30T09:33:33.215Z,14592.00
2018-08-30T09:34:33.244Z,11356.00
2018-08-30T09:35:33.267Z,12524.00
2018-08-30T09:36:33.295Z,12596.00
2018-08-30T09:37:33.314Z,13488.00
2018-08-30T09:38:33.341Z,11100.00
2018-08-30T09:39:33.363Z,9244.00
2018-08-30T09:40:33.390Z,11636.00
2018-08-30T09:41:33.414Z,9852.00
2018-08-30T09:42:33.437Z,8396.00
2018-08-30T09:43:33.468Z,8796.00
2018-08-30T09:44:33.491Z,7544.00
2018-08-30T09:45:33.515Z,6556.00
2018-08-30T09:46:33.537Z,6028.00
2018-08-30T09:47:33.566Z,5576.00
2018-08-30T09:48:33.589Z,5780.00
2018-08-30T09:49:33.615Z,5224.00
2018-08-30T09:50:33.641Z,6816.00
2018-08-30T09:51:33.665Z,9280.00
2018-08-30T09:52:33.686Z,9812.00
2018-08-30T09:53:33.710Z,9120.00
2018-08-30T09:54:33.737Z,10484.00
2018-08-30T09:55:33.800Z,11436.00
2018-08-30T09:56:33.781Z,9560.00
2018-08-30T09:57:33.839Z,8036.00
2018-08-30T09:58:33.830Z,5768.00
2018-08-30T09:59:33.856Z,4192.00
2018-08-30T10:00:33.889Z,3420.00
2018-08-30T10:01:33.917Z,3356.00
2018-08-30T10:02:33.936Z,3956.00
2018-08-30T10:03:33.962Z,6676.00
2018-08-30T10:04:34.053Z,9084.00
2018-08-30T10:05:34.009Z,10524.00
2018-08-30T10:06:34.038Z,11744.00
2018-08-30T10:07:34.063Z,12800.00
2018-08-30T10:08:34.082Z,13448.00
2018-08-30T10:09:34.104Z,13764.00
2018-08-30T10:10:34.138Z,14180.00
2018-08-30T10:11:34.159Z,14732.00
2018-08-30T10:12:34.191Z,11428.00
2018-08-30T10:13:34.212Z,10644.00
2018-08-30T10:14:34.238Z,11716.00
2018-08-30T10:15:34.263Z,11688.00
2018-08-30T10:16:34.289Z,11992.00
2018-08-30T10:17:34.309Z,12444.00
2018-08-30T10:18:34.343Z,12312.00
2018-08-30T10:19:34.366Z,13412.00
2018-08-30T10:20:34.389Z,12784.00
2018-08-30T10:21:34.479Z,11880.00
2018-08-30T10:22:34.432Z,10692.00
2018-08-30T10:23:34.467Z,8968.00
2018-08-30T10:24:34.490Z,8324.00
2018-08-30T10:25:34.516Z,8656.00
2018-08-30T10:26:34.548Z,9404.00
2018-08-30T10:27:34.569Z,10712.00
2018-08-30T10:28:34.591Z,11644.00
2018-08-30T10:29:34.619Z,10292.00
2018-08-30T10:30:34.646Z,10044.00
2018-08-30T10:31:34.766Z,12980.00
2018-08-30T10:32:34.693Z,13344.00
2018-08-30T10:33:34.719Z,14720.00
2018-08-30T10:34:34.749Z,13452.00
2018-08-30T10:35:34.775Z,11068.00
2018-08-30T10:36:34.803Z,7940.00
2018-08-30T10:37:34.817Z,5556.00
2018-08-30T10:38:34.846Z,4480.00
2018-08-30T10:39:34.877Z,4420.00
2018-08-30T10:40:34.898Z,3136.00
2018-08-30T10:41:34.923Z,2928.00
2018-08-30T10:42:34.946Z,3352.00
2018-08-30T10:43:34.971Z,4960.00
2018-08-30T10:44:35.000Z,5948.00
2018-08-30T10:45:35.021Z,5768.00
2018-08-30T10:46:35.048Z,7604.00
2018-08-30T10:47:35.077Z,8052.00
2018-08-30T10:48:35.098Z,7160.00
2018-08-30T10:49:35.269Z,5792.00
2018-08-30T10:50:35.148Z,5188.00
2018-08-30T10:51:35.177Z,4968.00
2018-08-30T10:52:35.197Z,5432.00
2018-08-30T10:53:35.228Z,6040.00
2018-08-30T10:54:35.253Z,6696.00
2018-08-30T10:55:35.275Z,7656.00
2018-08-30T10:56:35.300Z,7568.00
2018-08-30T10:57:35.330Z,6832.00
2018-08-30T10:58:35.348Z,6232.00
2018-08-30T10:59:35.382Z,3680.00
2018-08-30T11:00:35.399Z,2700.00
2018-08-30T11:01:35.430Z,2004.00
2018-08-30T11:02:35.452Z,1996.00
2018-08-30T11:03:35.469Z,1828.00
2018-08-30T11:04:35.496Z,1664.00
2018-08-30T11:05:35.522Z,2104.00
2018-08-30T11:06:35.541Z,2072.00
2018-08-30T11:07:35.569Z,2824.00
2018-08-30T11:08:35.596Z,2564.00
2018-08-30T11:09:35.618Z,2740.00
2018-08-30T11:10:35.638Z,2560.00
2018-08-30T11:11:35.675Z,2568.00
2018-08-30T11:12:35.688Z,3324.00
2018-08-30T11:13:35.817Z,5044.00
2018-08-30T11:14:35.732Z,6060.00
2018-08-30T11:15:35.758Z,8956.00
2018-08-30T11:16:35.780Z,9444.00
2018-08-30T11:17:35.809Z,9464.00
2018-08-30T11:18:35.831Z,6112.00
2018-08-30T11:19:35.855Z,5544.00
2018-08-30T11:20:35.873Z,5108.00
2018-08-30T11:21:35.895Z,4072.00
2018-08-30T11:22:35.930Z,3976.00
2018-08-30T11:23:35.961Z,5504.00
2018-08-30T11:24:36.019Z,5652.00
2018-08-30T11:25:36.001Z,6080.00
2018-08-30T11:26:36.019Z,6668.00
2018-08-30T11:27:36.062Z,5924.00
2018-08-30T11:28:36.065Z,5488.00
2018-08-30T11:29:36.090Z,5832.00
2018-08-30T11:30:36.112Z,6104.00
2018-08-30T11:31:36.136Z,6820.00
2018-08-30T11:32:36.162Z,6012.00
2018-08-30T11:33:36.187Z,5004.00
2018-08-30T11:34:36.209Z,5632.00
2018-08-30T11:35:36.233Z,5172.00
2018-08-30T11:36:36.262Z,4556.00
2018-08-30T11:37:36.310Z,4648.00
2018-08-30T11:38:36.304Z,5256.00
2018-08-30T11:39:36.324Z,6092.00
2018-08-30T11:40:36.348Z,6880.00
2018-08-30T11:41:36.480Z,9140.00
2018-08-30T11:42:36.403Z,6316.00
2018-08-30T11:43:36.448Z,6204.00
2018-08-30T11:44:36.448Z,6268.00
2018-08-30T11:45:36.466Z,6044.00
2018-08-30T11:46:36.494Z,7692.00
2018-08-30T11:47:36.517Z,7708.00
2018-08-30T11:48:36.542Z,8052.00
2018-08-30T11:49:36.572Z,10576.00
2018-08-30T11:50:36.595Z,10104.00
2018-08-30T11:51:36.623Z,8748.00
2018-08-30T11:52:36.689Z,6728.00
2018-08-30T11:53:36.663Z,6664.00
2018-08-30T11:54:36.685Z,5992.00
2018-08-30T11:55:36.713Z,5112.00
2018-08-30T11:56:36.740Z,5336.00
2018-08-30T11:57:36.754Z,5956.00
2018-08-30T11:58:36.779Z,4924.00
2018-08-30T11:59:36.802Z,4488.00
2018-08-30T12:00:36.828Z,6856.00
2018-08-30T12:01:36.848Z,7040.00
2018-08-30T12:02:36.878Z,7108.00
2018-08-30T12:03:36.908Z,6708.00
2018-08-30T12:04:36.923Z,5924.00
2018-08-30T12:05:36.954Z,5220.00
2018-08-30T12:06:36.977Z,5140.00
2018-08-30T12:07:36.999Z,5488.00
2018-08-30T12:08:37.025Z,7492.00
2018-08-30T12:09:37.045Z,5016.00
2018-08-30T12:10:37.196Z,5596.00
2018-08-30T12:11:37.201Z,4792.00
2018-08-30T12:12:37.123Z,7636.00
2018-08-30T12:13:37.145Z,7816.00
2018-08-30T12:14:37.173Z,6120.00
2018-08-30T12:15:37.193Z,5536.00
2018-08-30T12:16:37.219Z,4524.00
2018-08-30T12:17:37.242Z,4776.00
2018-08-30T12:18:37.273Z,6172.00
2018-08-30T12:19:37.288Z,5284.00
2018-08-30T12:20:37.416Z,5084.00
2018-08-30T12:21:37.337Z,4660.00
2018-08-30T12:22:37.361Z,3680.00
2018-08-30T12:23:37.389Z,3492.00
2018-08-30T12:24:37.408Z,3628.00
2018-08-30T12:25:37.444Z,3828.00
2018-08-30T12:26:37.455Z,3776.00
2018-08-30T12:27:37.477Z,3184.00
2018-08-30T12:28:37.539Z,3660.00
2018-08-30T12:29:37.540Z,3632.00
2018-08-30T12:30:37.590Z,4088.00
2018-08-30T12:31:37.624Z,3956.00
2018-08-30T12:32:37.635Z,5008.00